Atlanta, Georgia
Traffic Map
Current Weather Conditions
Atlanta, Georgia
Broken Clouds
Broken Clouds
63°
Feels Like: 63°
Wind Chill: 63° Ceiling: 25000
Heat Index: 63° Visibility: 10mi
Dew Point: 57° Wind: 8mph
Humidity: 81% Direction: 100° (E)
Pressure: 30.34in Gusts: 0mph
Raw Report DataKATL 241052Z 10007KT 10SM BKN250 17/14 A3034 RMK AO2 SLP267 T01720139
Traffic Incident Summary
Active as of:
Severity:
Category:
InformationThere was an issue retrieving the traffic information for this location. Please try a different location or try again shortly.
Advertisements
Track Severe Weather on mobile